Time;durP1;ratioP1;P1;durP2;ratioP2;P2;SDS_P1;SDS_P2;PMS_P1;PMS_P2;Temp;Humidity;BMP_temperature;BMP_pressure;BME280_temperature;BME280_humidity;BME280_pressure;Samples;Min_cycle;Max_cycle;Signal;HPM_P1;HPM_P2
2022/04/17 00:00:12;;;;;;;10.20;7.27;;;;;;;5.93;46.55;102535.72;692836;28;999;-81
2022/04/17 00:00:32;;;;;;;9.52;7.40;;;;;;;5.99;46.33;102543.94;690004;28;1405;-80
2022/04/17 00:00:53;;;;;;;10.15;7.70;;;;;;;5.94;46.37;102532.31;687842;28;1184;-82
2022/04/17 00:01:14;;;;;;;9.63;7.88;;;;;;;5.94;46.46;102532.31;684695;28;1195;-82
2022/04/17 00:01:36;;;;;;;9.33;7.70;;;;;;;5.94;46.59;102532.31;687608;28;1971;-82
2022/04/17 00:01:56;;;;;;;8.60;7.43;;;;;;;5.93;46.34;102535.72;685319;28;791;-82
2022/04/17 00:02:17;;;;;;;10.00;7.65;;;;;;;5.99;46.34;102535.25;690392;28;1163;-83
2022/04/17 00:02:38;;;;;;;11.13;7.90;;;;;;;5.94;46.33;102531.44;685660;28;1066;-83
2022/04/17 00:02:58;;;;;;;11.23;8.07;;;;;;;5.93;46.50;102527.00;687809;28;1015;-82
2022/04/17 00:03:21;;;;;;;10.57;7.77;;;;;;;5.90;46.05;102525.13;687851;28;1194;-82
2022/04/17 00:03:42;;;;;;;11.38;7.72;;;;;;;5.94;46.24;102537.50;685056;28;990;-81
2022/04/17 00:04:04;;;;;;;12.10;7.80;;;;;;;5.95;46.06;102539.31;688953;28;1615;-80
2022/04/17 00:04:24;;;;;;;12.18;8.10;;;;;;;5.89;46.43;102525.88;690934;28;1418;-81
2022/04/17 00:04:46;;;;;;;10.63;7.90;;;;;;;5.90;46.44;102535.47;690528;28;1052;-81
2022/04/17 00:05:07;;;;;;;9.68;7.55;;;;;;;5.86;46.56;102523.06;688660;28;1559;-81
2022/04/17 00:05:28;;;;;;;9.55;7.50;;;;;;;5.87;46.81;102532.66;694994;28;1278;-81
2022/04/17 00:05:50;;;;;;;10.63;7.72;;;;;;;5.95;46.43;102547.09;690517;28;1046;-81
2022/04/17 00:06:12;;;;;;;12.55;8.38;;;;;;;5.89;46.62;102528.47;685089;28;1046;-81
2022/04/17 00:06:33;;;;;;;12.55;8.43;;;;;;;5.88;46.64;102524.06;687641;28;1262;-81
2022/04/17 00:06:54;;;;;;;11.70;8.18;;;;;;;5.95;46.50;102528.06;690560;28;1716;-81
2022/04/17 00:07:15;;;;;;;11.32;8.00;;;;;;;5.92;46.52;102527.81;690959;28;1547;-81
2022/04/17 00:07:36;;;;;;;11.50;8.30;;;;;;;5.92;46.54;102526.13;687606;28;1056;-81
2022/04/17 00:07:57;;;;;;;10.38;8.30;;;;;;;5.93;46.41;102535.72;692901;28;1275;-81
2022/04/17 00:08:17;;;;;;;10.17;8.33;;;;;;;5.91;46.32;102526.91;688223;28;1257;-80
2022/04/17 00:08:38;;;;;;;11.05;8.30;;;;;;;5.93;46.46;102525.34;684859;28;1693;-81
2022/04/17 00:08:58;;;;;;;12.13;8.87;;;;;;;5.89;46.50;102518.09;687692;28;1488;-81
2022/04/17 00:09:19;;;;;;;12.90;8.70;;;;;;;5.93;46.16;102530.53;685539;28;1237;-81
2022/04/17 00:09:39;;;;;;;12.77;8.63;;;;;;;5.85;46.37;102516.09;684941;28;1639;-81
2022/04/17 00:10:02;;;;;;;12.90;8.50;;;;;;;5.84;46.32;102519.47;693268;28;1399;-81
2022/04/17 00:10:22;;;;;;;12.48;8.38;;;;;;;5.92;46.56;102523.53;687630;28;1438;-81
2022/04/17 00:10:49;;;;;;;11.07;8.07;;;;;;;5.97;46.40;102536.84;687919;28;1116;-82
2022/04/17 00:11:10;;;;;;;9.38;7.70;;;;;;;5.85;46.14;102511.81;687772;28;953;-83
2022/04/17 00:11:30;;;;;;;9.60;7.80;;;;;;;5.89;45.70;102524.22;694994;28;1202;-83
2022/04/17 00:11:51;;;;;;;10.00;7.73;;;;;;;5.91;46.23;102521.75;690381;28;1171;-83
2022/04/17 00:12:11;;;;;;;9.63;7.82;;;;;;;5.86;45.94;102523.06;690296;28;1024;-83
2022/04/17 00:12:32;;;;;;;9.05;7.38;;;;;;;5.85;45.87;102516.09;687638;28;1078;-83
2022/04/17 00:12:52;;;;;;;9.02;7.50;;;;;;;5.92;46.22;102526.13;684855;28;1042;-82
2022/04/17 00:13:14;;;;;;;9.53;7.40;;;;;;;5.91;46.00;102526.00;684327;28;1244;-81
2022/04/17 00:13:36;;;;;;;10.75;7.63;;;;;;;5.88;46.11;102524.06;687823;28;1438;-81
2022/04/17 00:13:58;;;;;;;10.65;7.30;;;;;;;5.89;46.25;102524.22;685001;28;1098;-80
2022/04/17 00:14:19;;;;;;;11.27;7.72;;;;;;;5.88;46.26;102527.59;685274;28;1445;-81
2022/04/17 00:14:40;;;;;;;10.40;7.88;;;;;;;5.88;46.36;102518.91;682380;29;1105;-81
2022/04/17 00:15:03;;;;;;;11.30;8.18;;;;;;;5.89;46.02;102520.69;685013;28;874;-81
2022/04/17 00:15:23;;;;;;;10.68;7.95;;;;;;;5.87;45.89;102514.50;689651;28;1403;-81
2022/04/17 00:15:44;;;;;;;9.57;7.70;;;;;;;5.91;46.04;102528.59;687382;28;1302;-81
2022/04/17 00:16:05;;;;;;;8.73;7.70;;;;;;;5.91;46.21;102526.00;684901;28;1149;-81
2022/04/17 00:16:25;;;;;;;9.00;7.53;;;;;;;5.86;46.13;102517.88;685502;28;1355;-81
2022/04/17 00:16:46;;;;;;;9.98;7.68;;;;;;;5.86;46.13;102523.97;689769;28;988;-81
2022/04/17 00:17:06;;;;;;;10.60;7.20;;;;;;;5.84;45.83;102524.66;688354;28;1672;-81
2022/04/17 00:17:27;;;;;;;9.93;7.00;;;;;;;5.84;46.27;102522.06;690363;28;1205;-81
2022/04/17 00:17:47;;;;;;;10.90;7.30;;;;;;;5.83;46.39;102525.44;690521;28;814;-80
2022/04/17 00:18:09;;;;;;;10.00;7.77;;;;;;;5.76;46.23;102513.69;692936;28;1318;-81
2022/04/17 00:18:29;;;;;;;10.55;8.02;;;;;;;5.74;46.42;102523.97;693047;28;1132;-81
2022/04/17 00:18:50;;;;;;;9.48;7.80;;;;;;;5.70;46.37;102510.66;688137;28;1706;-80
2022/04/17 00:19:10;;;;;;;11.35;8.10;;;;;;;5.70;46.63;102521.91;687642;28;1283;-81
2022/04/17 00:19:31;;;;;;;12.50;8.30;;;;;;;5.73;46.52;102518.66;687258;28;1163;-80
2022/04/17 00:19:51;;;;;;;11.85;8.30;;;;;;;5.79;46.52;102533.75;687500;28;1266;-81
2022/04/17 00:20:14;;;;;;;11.30;7.90;;;;;;;5.72;46.61;102520.31;690389;28;1173;-81
2022/04/17 00:20:37;;;;;;;11.30;7.72;;;;;;;5.72;46.26;102516.84;693149;28;980;-81
2022/04/17 00:20:58;;;;;;;10.75;7.72;;;;;;;5.62;46.54;102507.47;693163;28;858;-81
2022/04/17 00:21:20;;;;;;;10.35;7.55;;;;;;;5.72;46.57;102520.31;691812;28;1067;-81
2022/04/17 00:21:41;;;;;;;9.10;7.60;;;;;;;5.67;46.49;102526.88;687205;28;1923;-81
2022/04/17 00:22:03;;;;;;;9.02;7.70;;;;;;;5.65;46.78;102511.97;687749;28;1335;-81
2022/04/17 00:22:24;;;;;;;9.98;7.60;;;;;;;5.70;47.11;102521.03;690325;28;1122;-81
2022/04/17 00:22:44;;;;;;;9.82;7.80;;;;;;;5.69;46.66;102512.31;689229;28;1683;-81
2022/04/17 00:23:05;;;;;;;9.98;8.00;;;;;;;5.67;46.66;102511.31;692782;28;1169;-81
2022/04/17 00:23:26;;;;;;;9.82;8.00;;;;;;;5.66;46.78;102514.69;686998;28;1187;-81
2022/04/17 00:23:46;;;;;;;10.90;8.40;;;;;;;5.69;46.89;102514.91;692691;28;869;-81
2022/04/17 00:24:08;;;;;;;12.02;8.15;;;;;;;5.65;46.86;102518.03;687901;28;1191;-81
2022/04/17 00:24:29;;;;;;;10.93;8.00;;;;;;;5.71;46.63;102528.00;692684;28;1282;-81
2022/04/17 00:24:49;;;;;;;10.52;7.82;;;;;;;5.65;46.73;102511.97;690474;28;1711;-81
2022/04/17 00:25:11;;;;;;;9.73;8.07;;;;;;;5.73;46.76;102534.19;685105;28;1149;-81
2022/04/17 00:25:32;;;;;;;10.60;8.15;;;;;;;5.63;46.78;102517.03;687612;28;1493;-80
2022/04/17 00:25:52;;;;;;;10.05;7.85;;;;;;;5.66;46.59;102514.69;683832;28;1512;-81
2022/04/17 00:26:13;;;;;;;11.63;7.97;;;;;;;5.72;46.96;102522.03;692391;28;1606;-81
2022/04/17 00:26:33;;;;;;;11.37;8.10;;;;;;;5.66;47.02;102517.28;685720;28;1444;-81
2022/04/17 00:26:54;;;;;;;12.30;8.50;;;;;;;5.59;46.60;102502.94;689586;28;1052;-80
2022/04/17 00:27:15;;;;;;;11.38;8.90;;;;;;;5.67;46.83;102516.50;685613;28;1160;-82
2022/04/17 00:27:36;;;;;;;10.67;8.57;;;;;;;5.66;46.82;102525.06;687508;28;1769;-80
2022/04/17 00:27:57;;;;;;;10.25;8.27;;;;;;;5.63;46.81;102504.09;685176;28;1084;-81
2022/04/17 00:28:17;;;;;;;10.23;7.67;;;;;;;5.66;47.14;102522.47;687794;28;1124;-81
2022/04/17 00:28:38;;;;;;;10.95;7.88;;;;;;;5.72;46.85;102522.03;690432;28;1197;-80
2022/04/17 00:28:59;;;;;;;11.00;7.80;;;;;;;5.68;46.56;102512.19;687841;28;1258;-81
2022/04/17 00:29:19;;;;;;;11.20;8.05;;;;;;;5.62;47.07;102512.66;689165;28;1293;-81
2022/04/17 00:29:44;;;;;;;11.33;8.23;;;;;;;5.64;46.72;102521.44;687113;28;1014;-81
2022/04/17 00:30:05;;;;;;;10.70;8.10;;;;;;;5.65;47.19;102518.03;684990;28;1372;-81
2022/04/17 00:30:25;;;;;;;11.15;7.45;;;;;;;5.55;47.06;102505.19;686984;28;1159;-81
2022/04/17 00:30:46;;;;;;;11.10;7.40;;;;;;;5.56;47.15;102501.81;690378;28;1536;-81
2022/04/17 00:31:07;;;;;;;12.63;7.55;;;;;;;5.62;46.97;102512.66;687853;28;966;-81
2022/04/17 00:31:27;;;;;;;12.88;8.05;;;;;;;5.67;46.74;102521.69;690282;28;1317;-81
2022/04/17 00:31:48;;;;;;;13.53;8.30;;;;;;;5.62;46.88;102510.06;690465;28;1218;-81
2022/04/17 00:32:08;;;;;;;12.50;8.23;;;;;;;5.61;46.82;102510.84;690468;28;1096;-82
2022/04/17 00:32:31;;;;;;;12.25;8.18;;;;;;;5.67;46.80;102519.09;687729;28;1274;-81
2022/04/17 00:32:51;;;;;;;12.50;8.30;;;;;;;5.65;46.83;102523.22;687606;28;1730;-80
2022/04/17 00:33:12;;;;;;;12.32;8.10;;;;;;;5.61;47.05;102509.13;690683;28;1080;-81
2022/04/17 00:33:32;;;;;;;11.43;8.10;;;;;;;5.64;46.93;102518.84;693546;28;1020;-81
2022/04/17 00:33:53;;;;;;;10.37;7.90;;;;;;;5.65;46.85;102520.63;690551;28;1487;-81
2022/04/17 00:34:14;;;;;;;9.60;8.00;;;;;;;5.55;46.98;102508.69;685505;28;1268;-81
2022/04/17 00:34:36;;;;;;;10.80;7.90;;;;;;;5.52;47.14;102503.25;687867;28;1173;-81
2022/04/17 00:34:58;;;;;;;11.10;8.00;;;;;;;5.57;47.08;102514.88;698744;28;1211;-80
2022/04/17 00:35:18;;;;;;;11.18;7.90;;;;;;;5.53;47.22;102501.59;687700;28;1260;-81
2022/04/17 00:35:41;;;;;;;11.47;8.37;;;;;;;5.55;46.97;102502.59;687618;28;1742;-81
2022/04/17 00:36:02;;;;;;;11.48;8.18;;;;;;;5.57;47.32;102514.88;687644;28;1076;-81
2022/04/17 00:36:22;;;;;;;10.65;8.20;;;;;;;5.56;47.29;102507.91;690451;28;1123;-83
2022/04/17 00:36:43;;;;;;;10.63;8.20;;;;;;;5.53;47.19;102496.41;692091;28;1164;-83
2022/04/17 00:37:06;;;;;;;10.25;8.18;;;;;;;5.58;47.22;102510.63;693152;28;1273;-83
2022/04/17 00:37:27;;;;;;;10.80;8.50;;;;;;;5.52;46.95;102495.50;689980;28;1907;-83
2022/04/17 00:37:47;;;;;;;11.30;8.60;;;;;;;5.61;46.88;102514.31;684943;28;1692;-83
2022/04/17 00:38:08;;;;;;;12.68;9.30;;;;;;;5.64;46.95;102515.34;684793;28;1493;-83
2022/04/17 00:38:28;;;;;;;12.33;9.30;;;;;;;5.60;46.87;102502.16;684958;28;1302;-83
2022/04/17 00:38:49;;;;;;;11.98;9.45;;;;;;;5.60;46.96;102509.94;685036;28;1167;-83
2022/04/17 00:39:09;;;;;;;12.30;9.00;;;;;;;5.57;47.07;102501.00;687742;28;1217;-83
2022/04/17 00:39:30;;;;;;;14.90;9.67;;;;;;;5.57;46.77;102504.53;687195;28;1233;-83
2022/04/17 00:39:51;;;;;;;15.63;9.90;;;;;;;5.57;47.05;102503.59;687600;28;835;-83
2022/04/17 00:40:12;;;;;;;17.05;10.43;;;;;;;5.57;46.88;102498.44;690189;28;1286;-83
2022/04/17 00:40:32;;;;;;;16.50;10.32;;;;;;;5.55;46.93;102497.41;687801;28;932;-83
2022/04/17 00:40:56;;;;;;;15.75;10.40;;;;;;;5.62;46.91;102507.47;690527;28;1038;-83
2022/04/17 00:41:17;;;;;;;15.23;10.60;;;;;;;5.51;46.83;102495.41;690350;28;1268;-83
2022/04/17 00:41:38;;;;;;;14.00;10.57;;;;;;;5.55;46.73;102505.19;690074;28;1980;-83
2022/04/17 00:42:00;;;;;;;15.15;10.85;;;;;;;5.53;46.83;102501.59;689631;28;1272;-84
2022/04/17 00:42:21;;;;;;;15.60;11.20;;;;;;;5.51;46.89;102496.28;693171;28;1905;-82
2022/04/17 00:42:42;;;;;;;14.52;10.95;;;;;;;5.43;46.99;102485.34;690351;28;1143;-83
2022/04/17 00:43:18;;;;;;;14.50;10.87;;;;;;;5.50;46.90;102498.75;691307;28;1157;-83
2022/04/17 00:43:48;;;;;;;16.58;11.30;;;;;;;5.43;47.08;102487.94;690383;28;1048;-82
2022/04/17 00:44:13;;;;;;;18.63;11.48;;;;;;;5.54;47.39;102508.56;687114;28;950;-83
2022/04/17 00:44:35;;;;;;;18.65;11.50;;;;;;;5.45;46.81;102493.22;687674;28;945;-82
2022/04/17 00:44:55;;;;;;;19.75;11.85;;;;;;;5.51;47.13;102509.22;687654;28;904;-83
2022/04/17 00:45:16;;;;;;;20.07;11.97;;;;;;;5.40;47.03;102495.44;690490;28;1159;-83
2022/04/17 00:45:36;;;;;;;18.88;11.98;;;;;;;5.40;47.12;102490.28;687706;28;1857;-83
2022/04/17 00:45:57;;;;;;;17.27;12.10;;;;;;;5.40;47.04;102495.44;687891;28;811;-83
2022/04/17 00:46:18;;;;;;;17.75;11.77;;;;;;;5.37;47.14;102490.03;684833;28;1245;-83
2022/04/17 00:46:40;;;;;;;17.03;11.57;;;;;;;5.41;47.35;102492.06;685020;28;1414;-83
2022/04/17 00:47:00;;;;;;;19.10;11.38;;;;;;;5.39;47.12;102485.00;685155;28;882;-83
2022/04/17 00:47:21;;;;;;;21.13;12.00;;;;;;;5.39;47.06;102493.66;686435;28;1281;-83
2022/04/17 00:47:41;;;;;;;21.17;12.00;;;;;;;5.40;47.30;102492.88;689602;28;1745;-83
2022/04/17 00:48:02;;;;;;;19.67;11.95;;;;;;;5.37;47.49;102489.13;686909;28;1240;-83
2022/04/17 00:48:22;;;;;;;16.90;11.70;;;;;;;5.45;47.35;102507.06;690325;28;1509;-83
2022/04/17 00:48:43;;;;;;;17.30;11.82;;;;;;;5.37;47.24;102479.69;687926;28;1240;-82
2022/04/17 00:49:04;;;;;;;17.27;11.98;;;;;;;5.36;47.21;102493.44;690538;28;1016;-83
2022/04/17 00:49:25;;;;;;;18.55;12.25;;;;;;;5.37;47.39;102487.47;689625;28;1142;-83
2022/04/17 00:49:46;;;;;;;18.40;12.60;;;;;;;5.32;47.61;102479.34;688159;28;964;-83
2022/04/17 00:50:07;;;;;;;18.25;12.52;;;;;;;5.34;47.43;102484.66;690468;28;1046;-83
2022/04/17 00:50:27;;;;;;;18.30;12.35;;;;;;;5.30;47.23;102480.00;692615;28;1245;-83
2022/04/17 00:50:51;;;;;;;17.80;11.73;;;;;;;5.31;47.66;102481.81;684971;28;1270;-83
2022/04/17 00:51:11;;;;;;;18.48;11.27;;;;;;;5.28;47.69;102482.47;685002;28;1079;-83
2022/04/17 00:51:34;;;;;;;18.10;11.50;;;;;;;5.26;47.50;102470.16;687576;28;1280;-84
2022/04/17 00:51:54;;;;;;;17.33;11.80;;;;;;;5.32;47.82;102488.78;687998;28;1690;-82
2022/04/17 00:52:16;;;;;;;18.27;12.07;;;;;;;5.28;47.54;102484.16;690464;28;1151;-83
2022/04/17 00:52:37;;;;;;;17.30;11.74;;;;;;;5.27;47.62;102478.06;691502;28;1016;-83
2022/04/17 00:52:58;;;;;;;17.25;11.70;;;;;;;5.29;47.53;102493.72;692179;28;815;-83
2022/04/17 00:53:21;;;;;;;17.58;11.40;;;;;;;5.34;47.49;102492.41;687805;28;1209;-83
2022/04/17 00:53:44;;;;;;;18.73;11.90;;;;;;;5.34;47.57;102501.06;691879;28;1661;-83
2022/04/17 00:54:08;;;;;;;19.25;11.90;;;;;;;5.27;47.28;102487.53;690408;28;1131;-83
2022/04/17 00:54:30;;;;;;;18.77;12.20;;;;;;;5.27;47.76;102492.72;692496;28;1241;-83
2022/04/17 00:54:53;;;;;;;17.85;11.70;;;;;;;5.23;47.67;102486.41;693036;28;1760;-83
2022/04/17 00:55:15;;;;;;;16.98;11.48;;;;;;;5.20;47.71;102484.47;693588;28;1368;-83
2022/04/17 00:55:36;;;;;;;18.33;11.70;;;;;;;5.18;47.88;102478.28;687674;28;1168;-83
2022/04/17 00:55:57;;;;;;;17.70;11.20;;;;;;;5.13;47.76;102474.41;689944;28;720;-83
2022/04/17 00:56:19;;;;;;;18.27;11.63;;;;;;;5.10;47.92;102470.69;690559;28;1345;-83
2022/04/17 00:56:41;;;;;;;17.77;11.85;;;;;;;5.17;47.89;102491.97;689625;28;2024;-83
2022/04/17 00:57:04;;;;;;;18.58;12.00;;;;;;;5.11;48.02;102475.06;693160;28;1142;-83
2022/04/17 00:57:25;;;;;;;15.90;10.77;;;;;;;5.12;48.01;102485.56;691676;28;1119;-82
2022/04/17 00:57:46;;;;;;;15.07;10.10;;;;;;;5.10;47.96;102479.38;694691;28;1054;-83
2022/04/17 00:58:07;;;;;;;13.20;9.70;;;;;;;5.14;48.07;102486.56;690470;28;1024;-83
2022/04/17 00:58:32;;;;;;;13.30;9.75;;;;;;;5.18;48.07;102499.00;691682;28;1352;-83
2022/04/17 00:58:53;;;;;;;15.70;9.73;;;;;;;5.10;47.82;102484.56;687172;28;1743;-83
2022/04/17 00:59:15;;;;;;;15.65;9.90;;;;;;;5.12;47.79;102488.16;690316;28;1068;-83
2022/04/17 00:59:36;;;;;;;15.57;9.73;;;;;;;5.02;48.17;102475.25;684630;28;1142;-82
2022/04/17 00:59:57;;;;;;;13.20;9.60;;;;;;;5.10;48.03;102487.13;686912;28;1086;-83
2022/04/17 01:00:19;;;;;;;14.48;9.90;;;;;;;5.02;48.02;102480.44;687668;28;1168;-83
2022/04/17 01:00:40;;;;;;;13.98;9.75;;;;;;;5.06;48.10;102488.59;693090;28;1276;-83
2022/04/17 01:01:01;;;;;;;12.32;9.27;;;;;;;5.02;47.98;102475.25;692676;28;1012;-83
2022/04/17 01:01:22;;;;;;;12.90;8.73;;;;;;;5.02;48.20;102477.84;690286;28;1154;-83
2022/04/17 01:01:42;;;;;;;12.38;8.48;;;;;;;5.08;48.19;102496.44;690136;28;2022;-83
2022/04/17 01:02:06;;;;;;;13.43;8.65;;;;;;;5.02;48.14;102480.44;687751;28;1104;-83
2022/04/17 01:02:26;;;;;;;12.13;8.57;;;;;;;5.02;48.12;102485.59;693107;28;1442;-83
2022/04/17 01:02:50;;;;;;;14.65;9.00;;;;;;;4.97;48.39;102477.47;690442;28;1249;-83
2022/04/17 01:03:13;;;;;;;12.95;8.82;;;;;;;4.96;48.56;102482.56;687584;28;945;-83
2022/04/17 01:03:33;;;;;;;11.07;8.85;;;;;;;4.96;48.31;102485.16;684827;28;1478;-83
2022/04/17 01:03:54;;;;;;;10.98;8.30;;;;;;;4.89;48.47;102471.72;687819;28;783;-83
2022/04/17 01:04:15;;;;;;;12.25;8.23;;;;;;;4.97;48.58;102486.94;689536;28;1067;-83
2022/04/17 01:04:36;;;;;;;13.18;8.57;;;;;;;4.89;48.63;102483.72;690464;28;1156;-83
2022/04/17 01:04:56;;;;;;;12.77;8.57;;;;;;;4.85;48.44;102472.25;690480;28;1381;-83
2022/04/17 01:05:19;;;;;;;11.60;8.25;;;;;;;4.87;48.29;102475.88;687648;28;1079;-83
2022/04/17 01:05:43;;;;;;;12.93;8.27;;;;;;;4.93;48.57;102480.63;688346;28;1533;-83
2022/04/17 01:06:04;;;;;;;11.45;8.15;;;;;;;4.89;48.78;102473.38;690432;28;1209;-83
2022/04/17 01:06:26;;;;;;;13.18;8.70;;;;;;;4.98;48.59;102491.34;684877;28;1341;-82
2022/04/17 01:06:46;;;;;;;12.15;9.13;;;;;;;4.93;48.41;102485.81;690339;28;1849;-83
2022/04/17 01:07:08;;;;;;;11.77;9.10;;;;;;;4.95;48.73;102480.75;693171;28;944;-83
2022/04/17 01:07:29;;;;;;;10.68;8.82;;;;;;;4.93;48.50;102476.34;693840;28;1304;-83
2022/04/17 01:07:50;;;;;;;10.37;8.60;;;;;;;4.93;48.53;102481.50;690244;28;1757;-83
2022/04/17 01:08:12;;;;;;;10.90;8.48;;;;;;;4.93;48.52;102475.44;684849;28;1371;-83
2022/04/17 01:08:34;;;;;;;11.43;8.35;;;;;;;4.91;48.57;102472.72;687561;28;1533;-83
2022/04/17 01:08:55;;;;;;;10.52;7.72;;;;;;;4.90;48.31;102475.19;687887;28;883;-83
2022/04/17 01:09:15;;;;;;;9.97;7.53;;;;;;;4.92;48.68;102482.28;692700;28;1476;-83
2022/04/17 01:09:36;;;;;;;10.25;7.60;;;;;;;4.93;48.40;102484.09;692476;28;1748;-83
2022/04/17 01:09:58;;;;;;;11.32;8.02;;;;;;;4.91;48.28;102483.09;693082;28;1299;-83
2022/04/17 01:10:18;;;;;;;12.57;8.35;;;;;;;4.84;48.79;102462.69;693037;28;1161;-83
2022/04/17 01:10:40;;;;;;;11.60;8.10;;;;;;;4.86;48.82;102468.91;687197;28;1137;-83
2022/04/17 01:11:01;;;;;;;10.52;8.10;;;;;;;4.86;48.52;102467.97;685056;28;1094;-83
2022/04/17 01:11:21;;;;;;;10.73;8.32;;;;;;;4.96;48.96;102485.16;686256;28;1112;-83
2022/04/17 01:11:43;;;;;;;10.93;8.35;;;;;;;4.88;48.80;102480.28;687459;28;1254;-82
2022/04/17 01:12:09;;;;;;;12.63;8.93;;;;;;;4.86;48.58;102470.56;687654;28;1350;-83
2022/04/17 01:12:30;;;;;;;13.82;9.30;;;;;;;4.87;48.48;102478.47;687511;28;2060;-83
2022/04/17 01:12:54;;;;;;;13.27;9.23;;;;;;;4.93;48.56;102481.50;687660;28;1351;-83
2022/04/17 01:13:14;;;;;;;12.52;8.80;;;;;;;4.92;48.84;102478.81;690796;28;1222;-83
2022/04/17 01:13:36;;;;;;;11.60;8.60;;;;;;;4.97;48.91;102477.47;690233;28;1059;-82
2022/04/17 01:13:57;;;;;;;12.13;8.90;;;;;;;4.96;48.58;102479.97;687736;28;1111;-83
2022/04/17 01:14:20;;;;;;;14.95;9.25;;;;;;;4.92;48.74;102471.94;687521;28;1429;-83
2022/04/17 01:14:42;;;;;;;16.25;9.50;;;;;;;4.96;48.93;102475.69;689289;28;1441;-83
2022/04/17 01:15:03;;;;;;;15.05;9.48;;;;;;;4.89;48.42;102463.03;690257;28;1304;-83
2022/04/17 01:15:24;;;;;;;13.10;9.40;;;;;;;4.94;48.43;102472.06;691256;28;1203;-83
2022/04/17 01:15:45;;;;;;;12.85;9.27;;;;;;;4.99;48.77;102485.38;685648;28;1660;-83
2022/04/17 01:16:06;;;;;;;11.60;9.15;;;;;;;5.00;48.74;102492.34;687622;28;1092;-83
2022/04/17 01:16:27;;;;;;;11.43;8.95;;;;;;;4.92;48.69;102469.34;687492;28;1147;-82
2022/04/17 01:16:47;;;;;;;10.97;9.07;;;;;;;4.93;48.68;102468.56;690370;28;1433;-83
2022/04/17 01:17:09;;;;;;;12.80;9.30;;;;;;;5.01;48.54;102487.31;687583;28;927;-83
2022/04/17 01:17:29;;;;;;;13.93;9.43;;;;;;;4.96;48.54;102474.78;687560;28;1281;-83
2022/04/17 01:17:50;;;;;;;15.07;9.47;;;;;;;4.95;48.82;102478.16;685001;28;1216;-83
2022/04/17 01:18:11;;;;;;;15.10;9.07;;;;;;;4.92;48.45;102471.06;693046;28;1153;-83
2022/04/17 01:18:58;;;;;;;14.07;8.95;;;;;;;5.03;48.63;102492.63;692664;28;960;-83
2022/04/17 01:19:19;;;;;;;15.48;10.30;;;;;;;4.90;48.93;102476.09;691985;28;1433;-83
2022/04/17 01:19:39;;;;;;;14.27;9.93;;;;;;;4.91;48.84;102474.44;689625;28;1053;-83
2022/04/17 01:20:00;;;;;;;14.00;9.77;;;;;;;4.93;48.70;102484.09;693447;28;1257;-83
2022/04/17 01:20:23;;;;;;;12.90;9.90;;;;;;;4.87;48.89;102469.78;698407;28;1144;-82
2022/04/17 01:20:44;;;;;;;13.13;9.85;;;;;;;4.83;48.77;102466.06;692314;28;1125;-82
2022/04/17 01:21:08;;;;;;;13.50;9.50;;;;;;;4.87;48.96;102468.13;684872;28;974;-83
2022/04/17 01:21:29;;;;;;;13.25;9.38;;;;;;;4.96;48.72;102491.19;687423;28;1919;-83
2022/04/17 01:21:50;;;;;;;13.80;9.50;;;;;;;4.83;48.74;102471.22;684958;28;1504;-82
2022/04/17 01:22:11;;;;;;;13.77;9.80;;;;;;;4.88;48.90;102482.84;683529;28;1078;-83
2022/04/17 01:22:32;;;;;;;14.50;10.10;;;;;;;4.85;48.78;102477.41;690487;28;957;-82
2022/04/17 01:26:56;;;;;;;13.30;9.88;;;;;;;4.82;48.58;102472.00;695834;28;1239;-83
2022/04/17 01:26:57;;;;;;;14.40;9.23;;;;;;;4.76;49.33;102476.69;690341;28;882;-82
2022/04/17 01:27:21;;;;;;;14.25;9.73;;;;;;;4.76;48.92;102476.69;690109;28;2056;-83
2022/04/17 01:27:42;;;;;;;12.60;9.75;;;;;;;4.68;49.31;102462.25;684812;28;1386;-83
2022/04/17 01:28:03;;;;;;;13.37;9.57;;;;;;;4.71;49.18;102470.28;687647;28;1096;-82
2022/04/17 01:28:24;;;;;;;13.80;8.93;;;;;;;4.73;49.11;102471.28;685836;28;1136;-83
2022/04/17 01:28:44;;;;;;;13.68;8.45;;;;;;;4.70;49.12;102468.44;687403;28;1488;-83
2022/04/17 01:29:05;;;;;;;11.57;8.40;;;;;;;4.67;49.49;102463.94;687759;28;1115;-83
2022/04/17 01:29:31;;;;;;;11.65;8.60;;;;;;;4.75;49.02;102487.81;690066;28;1037;-83
2022/04/17 01:29:53;;;;;;;12.10;8.50;;;;;;;4.69;49.29;102470.13;695240;28;1436;-82
2022/04/17 01:30:13;;;;;;;13.75;8.50;;;;;;;4.64;49.23;102467.19;692433;28;1285;-83
2022/04/17 01:30:34;;;;;;;17.30;8.57;;;;;;;4.70;49.53;102481.38;690382;28;1067;-83
2022/04/17 01:30:56;;;;;;;15.57;8.40;;;;;;;4.68;49.42;102473.50;690416;28;1219;-82
2022/04/17 01:31:16;;;;;;;15.82;8.60;;;;;;;4.59;49.23;102460.75;692938;28;1185;-83
2022/04/17 01:31:37;;;;;;;11.90;8.40;;;;;;;4.59;49.79;102462.44;689861;28;1067;-83
2022/04/17 01:31:58;;;;;;;11.67;8.60;;;;;;;4.62;49.77;102462.66;690308;28;767;-83
2022/04/17 01:32:19;;;;;;;9.68;8.38;;;;;;;4.63;49.64;102473.16;692942;28;1193;-83
2022/04/17 01:32:40;;;;;;;9.13;8.10;;;;;;;4.59;49.61;102465.91;690311;28;988;-83
2022/04/17 01:33:00;;;;;;;11.15;8.45;;;;;;;4.57;49.84;102464.91;687707;28;748;-82
2022/04/17 01:33:21;;;;;;;11.73;8.50;;;;;;;4.53;50.05;102465.41;687190;28;1305;-82
2022/04/17 01:33:42;;;;;;;13.23;8.63;;;;;;;4.53;49.89;102462.81;690251;28;1522;-83
2022/04/17 01:34:03;;;;;;;12.70;8.68;;;;;;;4.56;49.89;102467.34;695790;28;1324;-83
2022/04/17 01:34:24;;;;;;;13.23;9.00;;;;;;;4.52;49.82;102461.03;693083;28;1056;-83
2022/04/17 01:34:45;;;;;;;11.50;8.63;;;;;;;4.57;50.02;102477.81;690275;28;1158;-83
2022/04/17 01:35:06;;;;;;;10.25;8.30;;;;;;;4.47;50.20;102458.06;690272;28;1109;-83
2022/04/17 01:35:26;;;;;;;9.25;8.20;;;;;;;4.53;50.01;102468.00;690289;28;1456;-82
2022/04/17 01:35:47;;;;;;;10.43;8.40;;;;;;;4.56;50.35;102480.28;687663;28;1232;-83
2022/04/17 01:36:08;;;;;;;10.43;8.32;;;;;;;4.49;50.17;102473.72;690226;28;930;-83
2022/04/17 01:36:28;;;;;;;10.17;8.27;;;;;;;4.48;50.07;102471.91;690054;28;1237;-83
2022/04/17 01:36:50;;;;;;;9.70;8.20;;;;;;;4.46;50.13;102470.88;690210;28;1409;-83
2022/04/17 01:37:11;;;;;;;9.65;8.13;;;;;;;4.40;50.23;102455.78;693048;28;1465;-82
2022/04/17 01:37:31;;;;;;;10.27;8.20;;;;;;;4.42;50.08;102463.66;690412;28;1042;-83
2022/04/17 01:37:52;;;;;;;10.20;8.30;;;;;;;4.37;50.13;102460.72;693108;28;857;-83
2022/04/17 01:38:13;;;;;;;10.00;8.00;;;;;;;4.36;50.24;102464.97;689791;28;1179;-82
2022/04/17 01:38:33;;;;;;;10.27;8.20;;;;;;;4.44;50.52;102477.59;690305;28;981;-83
2022/04/17 01:38:54;;;;;;;10.10;8.03;;;;;;;4.35;50.58;102467.44;685479;28;1600;-83
2022/04/17 01:39:15;;;;;;;11.88;8.25;;;;;;;4.32;50.63;102462.94;687677;28;1154;-82
2022/04/17 01:39:35;;;;;;;12.73;8.20;;;;;;;4.34;50.49;102465.59;687194;28;1129;-83
2022/04/17 01:39:56;;;;;;;13.27;8.43;;;;;;;4.38;50.26;102468.56;694405;28;1470;-83
2022/04/17 01:40:16;;;;;;;10.90;8.60;;;;;;;4.35;50.53;102462.28;692944;28;1099;-83
2022/04/17 01:40:37;;;;;;;10.45;8.70;;;;;;;4.33;50.75;102464.72;692983;28;876;-83
2022/04/17 01:40:57;;;;;;;11.53;9.00;;;;;;;4.36;50.25;102469.25;687742;28;1172;-83
2022/04/17 01:41:18;;;;;;;12.18;9.20;;;;;;;4.34;50.39;102463.03;687368;28;1156;-82
2022/04/17 01:41:39;;;;;;;12.38;9.07;;;;;;;4.33;50.59;102459.56;684286;28;1931;-83
2022/04/17 01:42:00;;;;;;;12.10;9.05;;;;;;;4.36;50.70;102469.25;692929;28;1297;-83
2022/04/17 01:42:20;;;;;;;11.23;8.55;;;;;;;4.39;50.58;102474.66;695662;28;1212;-82
2022/04/17 01:42:41;;;;;;;12.13;8.63;;;;;;;4.36;50.53;102467.56;687446;28;1232;-83
2022/04/17 01:43:07;;;;;;;10.82;7.90;;;;;;;4.33;50.68;102463.81;693019;28;1118;-83
2022/04/17 01:43:28;;;;;;;12.23;7.97;;;;;;;4.30;50.69;102458.41;692921;28;1203;-82
2022/04/17 01:43:49;;;;;;;12.00;8.40;;;;;;;4.29;50.54;102462.66;695835;28;767;-82
2022/04/17 01:44:09;;;;;;;11.98;8.70;;;;;;;4.26;50.62;102457.25;687645;28;1054;-83
2022/04/17 01:44:30;;;;;;;10.03;8.40;;;;;;;4.27;50.96;102460.72;684303;28;1562;-82
2022/04/17 01:44:51;;;;;;;9.63;8.23;;;;;;;4.27;50.98;102464.22;684655;28;1660;-83
2022/04/17 01:45:11;;;;;;;9.70;8.32;;;;;;;4.23;50.71;102451.84;692605;28;1680;-82
2022/04/17 01:45:32;;;;;;;10.30;8.32;;;;;;;4.26;50.93;102457.25;690275;28;1004;-83